sensor_id;sensor_type;location;lat;lon;timestamp;pressure;altitude;pressure_sealevel;temperature;humidity
20971;BME280;10644;48.834;10.088;2022-10-18T00:02:04;97604.16;;;18.87;57.01
20971;BME280;10644;48.834;10.088;2022-10-18T00:04:45;97597.56;;;18.83;57.03
20971;BME280;10644;48.834;10.088;2022-10-18T00:07:13;97606.03;;;18.85;57.46
20971;BME280;10644;48.834;10.088;2022-10-18T00:12:55;97599.66;;;18.78;57.19
20971;BME280;10644;48.834;10.088;2022-10-18T00:15:29;97601.53;;;18.76;57.56
20971;BME280;10644;48.834;10.088;2022-10-18T00:17:57;97590.84;;;18.68;57.63
20971;BME280;10644;48.834;10.088;2022-10-18T00:20:32;97607.13;;;18.70;57.82
20971;BME280;10644;48.834;10.088;2022-10-18T00:23:13;97606.00;;;18.74;57.72
20971;BME280;10644;48.834;10.088;2022-10-18T00:25:58;97598.16;;;18.86;57.20
20971;BME280;10644;48.834;10.088;2022-10-18T00:28:24;97590.03;;;18.91;57.32
20971;BME280;10644;48.834;10.088;2022-10-18T00:30:51;97602.94;;;18.80;57.34
20971;BME280;10644;48.834;10.088;2022-10-18T00:33:27;97588.16;;;18.69;57.28
20971;BME280;10644;48.834;10.088;2022-10-18T00:36:07;97599.66;;;18.78;57.03
20971;BME280;10644;48.834;10.088;2022-10-18T00:41:38;97591.50;;;18.59;57.79
20971;BME280;10644;48.834;10.088;2022-10-18T00:47:12;97598.97;;;18.63;57.41
20971;BME280;10644;48.834;10.088;2022-10-18T00:49:43;97590.84;;;18.68;57.66
20971;BME280;10644;48.834;10.088;2022-10-18T00:52:16;97591.69;;;18.68;57.22
20971;BME280;10644;48.834;10.088;2022-10-18T00:54:52;97599.25;;;18.71;56.97
20971;BME280;10644;48.834;10.088;2022-10-18T00:57:26;97592.75;;;18.66;57.33
20971;BME280;10644;48.834;10.088;2022-10-18T00:59:52;97590.44;;;18.61;57.48
20971;BME280;10644;48.834;10.088;2022-10-18T01:02:30;97579.19;;;18.50;57.03
20971;BME280;10644;48.834;10.088;2022-10-18T01:04:58;97573.38;;;18.46;57.63
20971;BME280;10644;48.834;10.088;2022-10-18T01:13:21;97591.56;;;18.46;57.17
20971;BME280;10644;48.834;10.088;2022-10-18T01:16:16;97571.59;;;18.47;57.19
20971;BME280;10644;48.834;10.088;2022-10-18T01:21:59;97578.59;;;18.46;57.17
20971;BME280;10644;48.834;10.088;2022-10-18T01:25:05;97583.38;;;18.40;57.17
20971;BME280;10644;48.834;10.088;2022-10-18T01:27:52;97582.97;;;18.33;57.55
20971;BME280;10644;48.834;10.088;2022-10-18T01:30:48;97582.31;;;18.30;57.61
20971;BME280;10644;48.834;10.088;2022-10-18T01:33:27;97580.66;;;18.29;57.56
20971;BME280;10644;48.834;10.088;2022-10-18T01:36:24;97590.03;;;18.31;57.39
20971;BME280;10644;48.834;10.088;2022-10-18T01:38:51;97590.44;;;18.25;57.90
20971;BME280;10644;48.834;10.088;2022-10-18T01:41:34;97587.94;;;18.24;57.76
20971;BME280;10644;48.834;10.088;2022-10-18T01:44:12;97592.91;;;18.27;57.90
20971;BME280;10644;48.834;10.088;2022-10-18T01:46:47;97593.13;;;18.24;57.91
20971;BME280;10644;48.834;10.088;2022-10-18T01:49:18;97593.88;;;18.26;58.08
20971;BME280;10644;48.834;10.088;2022-10-18T01:51:43;97589.91;;;18.20;58.24
20971;BME280;10644;48.834;10.088;2022-10-18T01:54:46;97596.66;;;18.23;57.59
20971;BME280;10644;48.834;10.088;2022-10-18T01:57:57;97593.44;;;18.19;57.84
20971;BME280;10644;48.834;10.088;2022-10-18T02:00:41;97595.44;;;18.16;58.20
20971;BME280;10644;48.834;10.088;2022-10-18T02:03:21;97590.06;;;18.06;58.46
20971;BME280;10644;48.834;10.088;2022-10-18T02:09:32;97593.97;;;18.12;58.80
20971;BME280;10644;48.834;10.088;2022-10-18T02:12:02;97584.88;;;18.06;59.57
20971;BME280;10644;48.834;10.088;2022-10-18T02:14:40;97589.75;;;17.98;59.60
20971;BME280;10644;48.834;10.088;2022-10-18T02:17:27;97588.00;;;17.99;59.68
20971;BME280;10644;48.834;10.088;2022-10-18T02:20:00;97581.88;;;18.00;59.41
20971;BME280;10644;48.834;10.088;2022-10-18T02:22:59;97583.84;;;17.96;59.71
20971;BME280;10644;48.834;10.088;2022-10-18T02:25:29;97577.81;;;17.96;60.02
20971;BME280;10644;48.834;10.088;2022-10-18T02:27:55;97565.19;;;17.91;60.39
20971;BME280;10644;48.834;10.088;2022-10-18T02:33:29;97568.47;;;18.06;60.02
20971;BME280;10644;48.834;10.088;2022-10-18T02:36:05;97568.03;;;18.12;59.63
20971;BME280;10644;48.834;10.088;2022-10-18T02:38:44;97569.31;;;18.06;59.80
20971;BME280;10644;48.834;10.088;2022-10-18T02:44:17;97566.91;;;18.16;60.04
20971;BME280;10644;48.834;10.088;2022-10-18T02:46:46;97553.69;;;18.19;60.27
20971;BME280;10644;48.834;10.088;2022-10-18T02:49:18;97566.81;;;18.17;60.05
20971;BME280;10644;48.834;10.088;2022-10-18T02:51:48;97569.06;;;18.22;60.21
20971;BME280;10644;48.834;10.088;2022-10-18T02:54:30;97560.56;;;18.20;59.78
20971;BME280;10644;48.834;10.088;2022-10-18T02:57:11;97553.94;;;18.16;60.05
20971;BME280;10644;48.834;10.088;2022-10-18T02:59:47;97556.72;;;18.13;60.42
20971;BME280;10644;48.834;10.088;2022-10-18T03:02:31;97561.91;;;18.13;60.45
20971;BME280;10644;48.834;10.088;2022-10-18T03:05:00;97553.94;;;18.16;60.31
20971;BME280;10644;48.834;10.088;2022-10-18T03:07:28;97562.00;;;18.24;60.57
20971;BME280;10644;48.834;10.088;2022-10-18T03:10:18;97566.75;;;18.30;59.83
20971;BME280;10644;48.834;10.088;2022-10-18T03:12:43;97565.94;;;18.29;60.59
20971;BME280;10644;48.834;10.088;2022-10-18T03:15:09;97558.47;;;18.37;60.38
20971;BME280;10644;48.834;10.088;2022-10-18T03:17:35;97553.16;;;18.39;60.32
20971;BME280;10644;48.834;10.088;2022-10-18T03:20:01;97554.88;;;18.51;60.16
20971;BME280;10644;48.834;10.088;2022-10-18T03:22:34;97551.16;;;18.55;60.02
20971;BME280;10644;48.834;10.088;2022-10-18T03:25:05;97542.06;;;18.60;59.95
20971;BME280;10644;48.834;10.088;2022-10-18T03:27:40;97540.31;;;18.61;59.87
20971;BME280;10644;48.834;10.088;2022-10-18T03:30:05;97538.16;;;18.55;60.35
20971;BME280;10644;48.834;10.088;2022-10-18T03:32:32;97548.50;;;18.44;60.48
20971;BME280;10644;48.834;10.088;2022-10-18T03:34:57;97539.56;;;18.48;60.19
20971;BME280;10644;48.834;10.088;2022-10-18T03:40:41;97548.84;;;18.50;60.46
20971;BME280;10644;48.834;10.088;2022-10-18T03:43:14;97549.50;;;18.54;60.61
20971;BME280;10644;48.834;10.088;2022-10-18T03:45:58;97544.06;;;18.57;59.98
20971;BME280;10644;48.834;10.088;2022-10-18T03:48:33;97555.44;;;18.67;60.18
20971;BME280;10644;48.834;10.088;2022-10-18T03:51:13;97545.78;;;18.69;60.19
20971;BME280;10644;48.834;10.088;2022-10-18T03:53:38;97551.25;;;18.77;60.45
20971;BME280;10644;48.834;10.088;2022-10-18T03:56:04;97545.22;;;18.76;60.45
20971;BME280;10644;48.834;10.088;2022-10-18T03:58:35;97547.44;;;18.70;60.42
20971;BME280;10644;48.834;10.088;2022-10-18T04:01:04;97560.06;;;18.51;61.38
20971;BME280;10644;48.834;10.088;2022-10-18T04:04:04;97550.19;;;18.20;62.19
20971;BME280;10644;48.834;10.088;2022-10-18T04:06:41;97564.84;;;18.08;63.16
20971;BME280;10644;48.834;10.088;2022-10-18T04:09:06;97548.44;;;18.08;63.92
20971;BME280;10644;48.834;10.088;2022-10-18T04:11:40;97548.41;;;18.20;63.11
20971;BME280;10644;48.834;10.088;2022-10-18T04:14:05;97558.47;;;18.25;63.80
20971;BME280;10644;48.834;10.088;2022-10-18T04:16:53;97561.06;;;18.37;63.13
20971;BME280;10644;48.834;10.088;2022-10-18T04:19:44;97562.06;;;18.47;62.80
20971;BME280;10644;48.834;10.088;2022-10-18T04:22:12;97547.94;;;18.51;63.16
20971;BME280;10644;48.834;10.088;2022-10-18T04:24:59;97557.53;;;18.62;62.40
20971;BME280;10644;48.834;10.088;2022-10-18T04:27:26;97562.19;;;18.69;62.30
20971;BME280;10644;48.834;10.088;2022-10-18T04:30:08;97573.78;;;18.76;61.83
20971;BME280;10644;48.834;10.088;2022-10-18T04:32:33;97567.22;;;18.60;62.36
20971;BME280;10644;48.834;10.088;2022-10-18T04:35:19;97563.56;;;18.62;61.80
20971;BME280;10644;48.834;10.088;2022-10-18T04:37:48;97563.78;;;18.59;62.14
20971;BME280;10644;48.834;10.088;2022-10-18T04:40:35;97571.03;;;18.67;61.60
20971;BME280;10644;48.834;10.088;2022-10-18T04:43:13;97562.53;;;18.65;61.95
20971;BME280;10644;48.834;10.088;2022-10-18T04:45:39;97563.00;;;18.70;61.91
20971;BME280;10644;48.834;10.088;2022-10-18T04:48:14;97559.00;;;18.66;61.92
20971;BME280;10644;48.834;10.088;2022-10-18T04:50:50;97563.19;;;18.56;62.14
20971;BME280;10644;48.834;10.088;2022-10-18T04:53:35;97566.13;;;18.51;62.28
20971;BME280;10644;48.834;10.088;2022-10-18T04:56:01;97555.06;;;18.37;63.25
20971;BME280;10644;48.834;10.088;2022-10-18T04:58:45;97564.59;;;18.36;63.65
20971;BME280;10644;48.834;10.088;2022-10-18T05:01:10;97563.25;;;18.31;64.07
20971;BME280;10644;48.834;10.088;2022-10-18T05:03:38;97572.34;;;18.49;63.78
20971;BME280;10644;48.834;10.088;2022-10-18T05:06:04;97571.16;;;18.53;63.78
20971;BME280;10644;48.834;10.088;2022-10-18T05:08:36;97574.72;;;18.52;64.16
20971;BME280;10644;48.834;10.088;2022-10-18T05:11:02;97582.78;;;18.60;63.96
20971;BME280;10644;48.834;10.088;2022-10-18T05:14:00;97576.72;;;18.72;62.82
20971;BME280;10644;48.834;10.088;2022-10-18T05:16:45;97568.25;;;18.81;62.98
20971;BME280;10644;48.834;10.088;2022-10-18T05:19:11;97565.44;;;18.84;63.17
20971;BME280;10644;48.834;10.088;2022-10-18T05:21:38;97559.69;;;18.91;63.13
20971;BME280;10644;48.834;10.088;2022-10-18T05:24:06;97562.78;;;18.96;63.26
20971;BME280;10644;48.834;10.088;2022-10-18T05:26:31;97560.50;;;18.92;63.21
20971;BME280;10644;48.834;10.088;2022-10-18T05:29:30;97555.81;;;18.97;63.14
20971;BME280;10644;48.834;10.088;2022-10-18T05:31:55;97555.22;;;18.70;64.96
20971;BME280;10644;48.834;10.088;2022-10-18T05:37:43;97555.75;;;18.86;64.20
20971;BME280;10644;48.834;10.088;2022-10-18T05:40:08;97548.56;;;18.89;64.48
20971;BME280;10644;48.834;10.088;2022-10-18T05:42:54;97560.06;;;18.98;64.02
20971;BME280;10644;48.834;10.088;2022-10-18T05:45:19;97545.09;;;19.01;64.15
20971;BME280;10644;48.834;10.088;2022-10-18T05:47:48;97546.91;;;19.12;64.26
20971;BME280;10644;48.834;10.088;2022-10-18T05:50:16;97546.44;;;19.18;64.09
20971;BME280;10644;48.834;10.088;2022-10-18T05:53:00;97552.06;;;19.24;63.52
20971;BME280;10644;48.834;10.088;2022-10-18T05:55:29;97549.31;;;19.26;63.58
20971;BME280;10644;48.834;10.088;2022-10-18T05:57:57;97542.25;;;19.28;63.75
20971;BME280;10644;48.834;10.088;2022-10-18T06:00:33;97547.22;;;19.31;63.34
20971;BME280;10644;48.834;10.088;2022-10-18T06:03:06;97543.44;;;19.35;63.55
20971;BME280;10644;48.834;10.088;2022-10-18T06:05:45;97544.03;;;19.38;63.17
20971;BME280;10644;48.834;10.088;2022-10-18T06:08:17;97543.00;;;19.41;63.08
20971;BME280;10644;48.834;10.088;2022-10-18T06:10:42;97545.47;;;19.42;63.20
20971;BME280;10644;48.834;10.088;2022-10-18T06:13:14;97548.78;;;19.44;63.09
20971;BME280;10644;48.834;10.088;2022-10-18T06:15:40;97565.31;;;19.43;63.63
20971;BME280;10644;48.834;10.088;2022-10-18T06:18:05;97551.94;;;19.37;63.43
20971;BME280;10644;48.834;10.088;2022-10-18T06:21:01;97568.97;;;19.41;63.34
20971;BME280;10644;48.834;10.088;2022-10-18T06:23:27;97567.31;;;19.40;63.65
20971;BME280;10644;48.834;10.088;2022-10-18T06:26:02;97576.41;;;19.45;63.42
20971;BME280;10644;48.834;10.088;2022-10-18T06:28:54;97565.69;;;19.50;63.22
20971;BME280;10644;48.834;10.088;2022-10-18T06:31:30;97566.63;;;19.49;63.43
20971;BME280;10644;48.834;10.088;2022-10-18T06:34:07;97562.16;;;19.51;63.03
20971;BME280;10644;48.834;10.088;2022-10-18T06:36:35;97568.06;;;19.53;63.60
20971;BME280;10644;48.834;10.088;2022-10-18T06:39:13;97576.81;;;19.52;63.46
20971;BME280;10644;48.834;10.088;2022-10-18T06:41:50;97580.81;;;19.45;64.00
20971;BME280;10644;48.834;10.088;2022-10-18T06:44:21;97582.47;;;19.46;63.68
20971;BME280;10644;48.834;10.088;2022-10-18T06:46:52;97593.06;;;19.43;64.27
20971;BME280;10644;48.834;10.088;2022-10-18T06:49:44;97590.97;;;19.48;63.94
20971;BME280;10644;48.834;10.088;2022-10-18T06:52:12;97582.09;;;19.50;64.27
20971;BME280;10644;48.834;10.088;2022-10-18T06:54:37;97591.94;;;19.58;63.72
20971;BME280;10644;48.834;10.088;2022-10-18T06:57:03;97587.31;;;19.61;63.63
20971;BME280;10644;48.834;10.088;2022-10-18T06:59:31;97594.19;;;19.62;64.10
20971;BME280;10644;48.834;10.088;2022-10-18T07:01:58;97581.31;;;19.61;64.08
20971;BME280;10644;48.834;10.088;2022-10-18T07:04:27;97587.31;;;19.61;63.75
20971;BME280;10644;48.834;10.088;2022-10-18T07:07:02;97584.63;;;19.63;63.36
20971;BME280;10644;48.834;10.088;2022-10-18T07:09:27;97602.13;;;19.72;63.45
20971;BME280;10644;48.834;10.088;2022-10-18T07:11:58;97597.66;;;19.74;63.29
20971;BME280;10644;48.834;10.088;2022-10-18T07:14:29;97600.94;;;19.76;63.21
20971;BME280;10644;48.834;10.088;2022-10-18T07:17:00;97602.38;;;19.80;63.52
20971;BME280;10644;48.834;10.088;2022-10-18T07:19:56;97608.28;;;19.93;63.15
20971;BME280;10644;48.834;10.088;2022-10-18T07:22:27;97604.31;;;20.00;63.17
20971;BME280;10644;48.834;10.088;2022-10-18T07:24:52;97610.91;;;20.04;63.33
20971;BME280;10644;48.834;10.088;2022-10-18T07:27:19;97608.59;;;20.12;63.41
20971;BME280;10644;48.834;10.088;2022-10-18T07:29:52;97619.34;;;20.18;63.05
20971;BME280;10644;48.834;10.088;2022-10-18T07:32:32;97616.88;;;20.17;63.34
20971;BME280;10644;48.834;10.088;2022-10-18T07:35:10;97610.94;;;20.26;63.05
20971;BME280;10644;48.834;10.088;2022-10-18T07:37:37;97613.78;;;20.34;63.16
20971;BME280;10644;48.834;10.088;2022-10-18T07:40:02;97613.78;;;20.45;63.08
20971;BME280;10644;48.834;10.088;2022-10-18T07:43:03;97619.78;;;20.56;62.66
20971;BME280;10644;48.834;10.088;2022-10-18T07:45:35;97616.22;;;20.57;62.92
20971;BME280;10644;48.834;10.088;2022-10-18T07:48:28;97614.34;;;20.59;62.74
20971;BME280;10644;48.834;10.088;2022-10-18T07:50:53;97612.44;;;20.72;62.71
20971;BME280;10644;48.834;10.088;2022-10-18T07:53:21;97617.84;;;20.91;62.37
20971;BME280;10644;48.834;10.088;2022-10-18T07:55:47;97595.78;;;21.06;62.22
20971;BME280;10644;48.834;10.088;2022-10-18T07:58:13;97593.19;;;21.27;61.49
20971;BME280;10644;48.834;10.088;2022-10-18T08:00:54;97609.69;;;21.48;61.20
20971;BME280;10644;48.834;10.088;2022-10-18T08:03:21;97602.03;;;21.56;60.38
20971;BME280;10644;48.834;10.088;2022-10-18T08:05:53;97606.63;;;21.63;60.04
20971;BME280;10644;48.834;10.088;2022-10-18T08:08:23;97594.44;;;21.64;58.98
20971;BME280;10644;48.834;10.088;2022-10-18T08:10:49;97593.56;;;21.74;58.52
20971;BME280;10644;48.834;10.088;2022-10-18T08:13:20;97597.34;;;21.70;57.80
20971;BME280;10644;48.834;10.088;2022-10-18T08:15:48;97584.13;;;21.83;58.19
20971;BME280;10644;48.834;10.088;2022-10-18T08:18:14;97586.97;;;22.00;57.24
20971;BME280;10644;48.834;10.088;2022-10-18T08:20:44;97591.09;;;22.03;56.91
20971;BME280;10644;48.834;10.088;2022-10-18T08:23:10;97594.41;;;22.05;56.38
20971;BME280;10644;48.834;10.088;2022-10-18T08:25:35;97600.50;;;22.15;56.57
20971;BME280;10644;48.834;10.088;2022-10-18T08:28:04;97593.47;;;22.15;56.22
20971;BME280;10644;48.834;10.088;2022-10-18T08:30:33;97598.34;;;22.29;56.43
20971;BME280;10644;48.834;10.088;2022-10-18T08:36:10;97596.69;;;22.68;55.97
20971;BME280;10644;48.834;10.088;2022-10-18T08:38:48;97603.75;;;22.77;55.40
20971;BME280;10644;48.834;10.088;2022-10-18T08:41:27;97595.66;;;22.99;55.27
20971;BME280;10644;48.834;10.088;2022-10-18T08:44:19;97604.31;;;23.09;54.69
20971;BME280;10644;48.834;10.088;2022-10-18T08:47:04;97607.41;;;23.23;53.64
20971;BME280;10644;48.834;10.088;2022-10-18T08:49:37;97605.69;;;23.13;53.32
20971;BME280;10644;48.834;10.088;2022-10-18T08:55:04;97604.47;;;23.07;54.37
20971;BME280;10644;48.834;10.088;2022-10-18T08:57:34;97597.34;;;23.19;54.33
20971;BME280;10644;48.834;10.088;2022-10-18T09:00:19;97599.25;;;23.36;53.71
20971;BME280;10644;48.834;10.088;2022-10-18T09:15:07;97599.09;;;23.56;53.63
20971;BME280;10644;48.834;10.088;2022-10-18T09:26:43;97604.03;;;23.69;52.67
20971;BME280;10644;48.834;10.088;2022-10-18T09:32:47;97608.66;;;24.13;52.45
20971;BME280;10644;48.834;10.088;2022-10-18T09:35:29;97612.75;;;24.25;51.54
20971;BME280;10644;48.834;10.088;2022-10-18T09:38:18;97616.56;;;24.40;51.71
20971;BME280;10644;48.834;10.088;2022-10-18T09:40:57;97611.59;;;24.37;51.49
20971;BME280;10644;48.834;10.088;2022-10-18T09:46:32;97595.97;;;24.72;51.03
20971;BME280;10644;48.834;10.088;2022-10-18T09:49:09;97604.84;;;25.06;50.81
20971;BME280;10644;48.834;10.088;2022-10-18T09:51:58;97596.94;;;25.33;49.92
20971;BME280;10644;48.834;10.088;2022-10-18T09:54:48;97593.34;;;25.34;49.74
20971;BME280;10644;48.834;10.088;2022-10-18T09:57:30;97599.19;;;25.28;49.18
20971;BME280;10644;48.834;10.088;2022-10-18T09:59:59;97607.97;;;25.19;48.65
20971;BME280;10644;48.834;10.088;2022-10-18T10:02:25;97589.53;;;25.28;48.55
20971;BME280;10644;48.834;10.088;2022-10-18T10:04:52;97599.28;;;25.36;48.17
20971;BME280;10644;48.834;10.088;2022-10-18T10:07:27;97600.59;;;25.22;48.88
20971;BME280;10644;48.834;10.088;2022-10-18T10:10:27;97589.53;;;25.28;48.71
20971;BME280;10644;48.834;10.088;2022-10-18T10:16:03;97615.13;;;25.26;47.74
20971;BME280;10644;48.834;10.088;2022-10-18T10:18:37;97608.56;;;25.48;47.96
20971;BME280;10644;48.834;10.088;2022-10-18T10:21:13;97598.13;;;25.56;46.79
20971;BME280;10644;48.834;10.088;2022-10-18T10:23:54;97588.41;;;25.31;47.54
20971;BME280;10644;48.834;10.088;2022-10-18T10:26:27;97597.84;;;25.24;47.56
20971;BME280;10644;48.834;10.088;2022-10-18T10:32:16;97592.22;;;25.54;47.75
20971;BME280;10644;48.834;10.088;2022-10-18T10:34:43;97592.09;;;25.81;47.08
20971;BME280;10644;48.834;10.088;2022-10-18T10:37:33;97596.22;;;26.09;47.15
20971;BME280;10644;48.834;10.088;2022-10-18T10:43:16;97603.63;;;25.88;47.11
20971;BME280;10644;48.834;10.088;2022-10-18T10:49:17;97607.97;;;25.54;48.21
20971;BME280;10644;48.834;10.088;2022-10-18T10:52:23;97598.50;;;25.61;48.06
20971;BME280;10644;48.834;10.088;2022-10-18T10:55:18;97601.97;;;25.87;47.23
20971;BME280;10644;48.834;10.088;2022-10-18T11:00:43;97599.41;;;25.95;47.26
20971;BME280;10644;48.834;10.088;2022-10-18T11:03:16;97607.75;;;26.16;47.06
20971;BME280;10644;48.834;10.088;2022-10-18T11:05:47;97597.63;;;26.29;47.13
20971;BME280;10644;48.834;10.088;2022-10-18T11:08:37;97597.63;;;26.29;46.79
20971;BME280;10644;48.834;10.088;2022-10-18T11:11:22;97598.41;;;26.47;46.85
20971;BME280;10644;48.834;10.088;2022-10-18T11:13:56;97597.69;;;26.37;46.77
20971;BME280;10644;48.834;10.088;2022-10-18T11:16:57;97599.56;;;26.52;46.48
20971;BME280;10644;48.834;10.088;2022-10-18T11:22:35;97602.25;;;26.35;46.26
20971;BME280;10644;48.834;10.088;2022-10-18T11:25:14;97601.59;;;26.33;46.14
20971;BME280;10644;48.834;10.088;2022-10-18T11:31:23;97601.97;;;26.38;46.62
20971;BME280;10644;48.834;10.088;2022-10-18T11:34:19;97590.16;;;26.50;46.34
20971;BME280;10644;48.834;10.088;2022-10-18T11:42:32;97588.03;;;26.87;45.31
20971;BME280;10644;48.834;10.088;2022-10-18T11:48:48;97579.31;;;26.94;46.31
20971;BME280;10644;48.834;10.088;2022-10-18T11:51:19;97588.56;;;27.06;46.12
20971;BME280;10644;48.834;10.088;2022-10-18T12:03:43;97585.31;;;26.21;46.32
20971;BME280;10644;48.834;10.088;2022-10-18T12:05:51;97569.53;;;26.63;45.93
20971;BME280;10644;48.834;10.088;2022-10-18T12:08:39;97576.88;;;26.93;45.18
20971;BME280;10644;48.834;10.088;2022-10-18T12:11:15;97562.41;;;27.13;44.73
20971;BME280;10644;48.834;10.088;2022-10-18T12:13:54;97573.63;;;27.31;44.62
20971;BME280;10644;48.834;10.088;2022-10-18T12:16:23;97565.72;;;27.31;44.61
20971;BME280;10644;48.834;10.088;2022-10-18T12:18:59;97567.19;;;27.65;44.13
20971;BME280;10644;48.834;10.088;2022-10-18T12:21:28;97560.31;;;27.80;43.56
20971;BME280;10644;48.834;10.088;2022-10-18T12:23:58;97560.94;;;27.82;43.84
20971;BME280;10644;48.834;10.088;2022-10-18T12:26:26;97562.91;;;27.88;43.02
20971;BME280;10644;48.834;10.088;2022-10-18T12:29:12;97557.81;;;27.71;42.55
20971;BME280;10644;48.834;10.088;2022-10-18T12:31:49;97565.41;;;27.50;43.26
20971;BME280;10644;48.834;10.088;2022-10-18T12:39:32;97569.97;;;27.08;44.01
20971;BME280;10644;48.834;10.088;2022-10-18T12:42:01;97564.16;;;26.80;44.81
20971;BME280;10644;48.834;10.088;2022-10-18T12:44:31;97561.03;;;26.77;44.91
20971;BME280;10644;48.834;10.088;2022-10-18T12:47:03;97568.44;;;26.81;45.33
20971;BME280;10644;48.834;10.088;2022-10-18T12:49:33;97556.47;;;26.95;44.62
20971;BME280;10644;48.834;10.088;2022-10-18T12:52:02;97566.78;;;26.80;45.08
20971;BME280;10644;48.834;10.088;2022-10-18T12:54:33;97557.63;;;26.51;44.89
20971;BME280;10644;48.834;10.088;2022-10-18T12:57:02;97573.81;;;26.22;45.71
20971;BME280;10644;48.834;10.088;2022-10-18T13:04:39;97565.59;;;25.92;47.09
20971;BME280;10644;48.834;10.088;2022-10-18T13:09:40;97549.75;;;26.51;45.61
20971;BME280;10644;48.834;10.088;2022-10-18T13:15:05;97548.09;;;26.50;46.00
20971;BME280;10644;48.834;10.088;2022-10-18T13:18:07;97550.28;;;26.54;45.42
20971;BME280;10644;48.834;10.088;2022-10-18T13:20:52;97569.06;;;26.34;45.67
20971;BME280;10644;48.834;10.088;2022-10-18T13:26:33;97560.59;;;25.89;46.80
20971;BME280;10644;48.834;10.088;2022-10-18T13:29:56;97554.09;;;25.93;47.22
20971;BME280;10644;48.834;10.088;2022-10-18T13:32:34;97554.84;;;26.11;47.06
20971;BME280;10644;48.834;10.088;2022-10-18T13:38:35;97558.31;;;26.11;47.12
20971;BME280;10644;48.834;10.088;2022-10-18T13:41:17;97553.63;;;26.31;46.58
20971;BME280;10644;48.834;10.088;2022-10-18T13:44:08;97561.66;;;25.96;47.64
20971;BME280;10644;48.834;10.088;2022-10-18T13:49:22;97561.66;;;25.27;49.63
20971;BME280;10644;48.834;10.088;2022-10-18T13:52:01;97562.09;;;25.23;49.86
20971;BME280;10644;48.834;10.088;2022-10-18T13:57:40;97580.03;;;24.83;50.70
20971;BME280;10644;48.834;10.088;2022-10-18T14:11:38;97585.28;;;24.83;51.27
20971;BME280;10644;48.834;10.088;2022-10-18T14:17:27;97583.44;;;25.28;50.55
20971;BME280;10644;48.834;10.088;2022-10-18T14:25:32;97583.38;;;25.20;51.05
20971;BME280;10644;48.834;10.088;2022-10-18T14:28:17;97586.25;;;25.26;50.99
20971;BME280;10644;48.834;10.088;2022-10-18T14:31:03;97585.41;;;25.26;50.81
20971;BME280;10644;48.834;10.088;2022-10-18T14:33:54;97586.06;;;25.28;50.48
20971;BME280;10644;48.834;10.088;2022-10-18T14:36:24;97592.88;;;25.21;50.77
20971;BME280;10644;48.834;10.088;2022-10-18T14:38:59;97586.06;;;25.28;50.75
20971;BME280;10644;48.834;10.088;2022-10-18T14:41:35;97587.56;;;25.30;50.31
20971;BME280;10644;48.834;10.088;2022-10-18T14:46:51;97596.97;;;25.06;51.21
20971;BME280;10644;48.834;10.088;2022-10-18T14:49:19;97593.78;;;25.12;50.59
20971;BME280;10644;48.834;10.088;2022-10-18T14:51:47;97584.63;;;25.16;50.83
20971;BME280;10644;48.834;10.088;2022-10-18T14:54:19;97591.69;;;24.98;50.50
20971;BME280;10644;48.834;10.088;2022-10-18T14:56:51;97593.91;;;24.93;50.82
20971;BME280;10644;48.834;10.088;2022-10-18T14:59:23;97590.25;;;24.86;50.67
20971;BME280;10644;48.834;10.088;2022-10-18T15:01:59;97594.38;;;24.88;51.02
20971;BME280;10644;48.834;10.088;2022-10-18T15:04:27;97588.31;;;25.05;50.34
20971;BME280;10644;48.834;10.088;2022-10-18T15:07:16;97584.81;;;25.14;50.32
20971;BME280;10644;48.834;10.088;2022-10-18T15:09:42;97592.56;;;24.89;51.13
20971;BME280;10644;48.834;10.088;2022-10-18T15:12:12;97587.97;;;24.73;51.49
20971;BME280;10644;48.834;10.088;2022-10-18T15:14:38;97585.00;;;24.86;51.23
20971;BME280;10644;48.834;10.088;2022-10-18T15:17:14;97585.66;;;24.88;50.85
20971;BME280;10644;48.834;10.088;2022-10-18T15:19:59;97591.88;;;24.69;51.24
20971;BME280;10644;48.834;10.088;2022-10-18T15:22:27;97586.66;;;24.60;51.16
20971;BME280;10644;48.834;10.088;2022-10-18T15:25:14;97588.41;;;24.42;51.96
20971;BME280;10644;48.834;10.088;2022-10-18T15:27:52;97587.38;;;24.25;52.12
20971;BME280;10644;48.834;10.088;2022-10-18T15:30:41;97591.53;;;24.18;52.34
20971;BME280;10644;48.834;10.088;2022-10-18T15:33:07;97581.97;;;24.00;52.92
20971;BME280;10644;48.834;10.088;2022-10-18T15:35:44;97588.69;;;24.12;52.72
20971;BME280;10644;48.834;10.088;2022-10-18T15:38:25;97581.88;;;24.19;52.47
20971;BME280;10644;48.834;10.088;2022-10-18T15:40:53;97580.28;;;24.35;52.24
20971;BME280;10644;48.834;10.088;2022-10-18T15:45:51;97578.38;;;24.55;51.80
20971;BME280;10644;48.834;10.088;2022-10-18T15:50:52;97576.19;;;24.60;51.06
20971;BME280;10644;48.834;10.088;2022-10-18T15:53:45;97577.81;;;24.61;51.44
20971;BME280;10644;48.834;10.088;2022-10-18T15:56:32;97585.59;;;24.53;51.39
20971;BME280;10644;48.834;10.088;2022-10-18T15:59:01;97586.66;;;24.33;51.95
20971;BME280;10644;48.834;10.088;2022-10-18T16:01:37;97582.84;;;24.18;52.12
20971;BME280;10644;48.834;10.088;2022-10-18T16:04:31;97586.06;;;24.12;52.18
20971;BME280;10644;48.834;10.088;2022-10-18T16:06:57;97595.97;;;24.18;52.00
20971;BME280;10644;48.834;10.088;2022-10-18T16:09:27;97602.03;;;24.09;52.23
20971;BME280;10644;48.834;10.088;2022-10-18T16:11:53;97604.53;;;24.10;52.07
20971;BME280;10644;48.834;10.088;2022-10-18T16:14:20;97599.03;;;24.04;52.35
20971;BME280;10644;48.834;10.088;2022-10-18T16:16:55;97600.41;;;24.08;52.10
20971;BME280;10644;48.834;10.088;2022-10-18T16:19:22;97597.69;;;24.00;52.13